createdAt,value
2019-06-20T00:01:43.014Z,8.48
2019-06-20T00:04:17.600Z,7.15
2019-06-20T00:06:52.019Z,10.05
2019-06-20T00:09:26.472Z,7.95
2019-06-20T00:12:00.966Z,7.65
2019-06-20T00:14:35.503Z,6.75
2019-06-20T00:17:10.003Z,6.62
2019-06-20T00:19:45.526Z,6.62
2019-06-20T00:22:20.077Z,6.87
2019-06-20T00:24:54.537Z,6.50
2019-06-20T00:27:28.946Z,6.83
2019-06-20T00:30:03.558Z,7.90
2019-06-20T00:32:39.249Z,9.38
2019-06-20T00:35:14.046Z,8.20
2019-06-20T00:37:48.526Z,8.63
2019-06-20T00:40:23.128Z,7.70
2019-06-20T00:42:58.871Z,7.17
2019-06-20T00:45:33.317Z,8.43
2019-06-20T00:48:07.888Z,7.95
2019-06-20T00:50:42.350Z,8.18
2019-06-20T00:53:16.845Z,8.03
2019-06-20T00:55:51.439Z,7.40
2019-06-20T00:58:25.934Z,8.45
2019-06-20T01:01:00.401Z,8.33
2019-06-20T01:03:34.836Z,7.87
2019-06-20T01:06:09.486Z,8.00
2019-06-20T01:08:43.981Z,8.30
2019-06-20T01:11:18.502Z,7.65
2019-06-20T01:13:53.103Z,8.95
2019-06-20T01:16:27.517Z,7.92
2019-06-20T01:19:01.951Z,7.85
2019-06-20T01:21:36.408Z,8.85
2019-06-20T01:24:10.900Z,8.73
2019-06-20T01:26:45.356Z,10.70
2019-06-20T01:29:19.772Z,8.10
2019-06-20T01:31:54.274Z,8.18
2019-06-20T01:34:28.768Z,9.35
2019-06-20T01:37:03.299Z,8.73
2019-06-20T01:39:38.801Z,8.53
2019-06-20T01:42:13.399Z,8.78
2019-06-20T01:44:47.966Z,9.48
2019-06-20T01:47:22.504Z,11.38
2019-06-20T01:49:57.021Z,8.20
2019-06-20T01:52:31.538Z,9.93
2019-06-20T01:55:06.184Z,8.60
2019-06-20T01:57:40.707Z,9.20
2019-06-20T02:00:27.320Z,8.98
2019-06-20T02:03:02.076Z,8.55
2019-06-20T02:05:36.761Z,11.05
2019-06-20T02:08:11.481Z,9.58
2019-06-20T02:10:46.098Z,9.70
2019-06-20T02:13:21.882Z,9.20
2019-06-20T02:15:56.345Z,9.10
2019-06-20T02:18:30.811Z,8.98
2019-06-20T02:21:06.866Z,9.30
2019-06-20T02:23:43.076Z,8.45
2019-06-20T02:26:17.536Z,9.88
2019-06-20T02:28:51.994Z,8.15
2019-06-20T02:31:26.503Z,8.58
2019-06-20T02:34:00.956Z,8.28
2019-06-20T02:36:35.462Z,8.55
2019-06-20T02:39:09.896Z,8.63
2019-06-20T02:41:44.325Z,7.53
2019-06-20T02:44:30.024Z,8.18
2019-06-20T02:46:55.053Z,8.40
2019-06-20T02:49:29.489Z,8.03
2019-06-20T02:52:04.260Z,8.58
2019-06-20T02:54:38.955Z,10.88
2019-06-20T02:57:13.442Z,7.37
2019-06-20T02:59:47.991Z,7.08
2019-06-20T03:02:22.408Z,8.03
2019-06-20T03:04:56.935Z,11.20
2019-06-20T03:07:31.421Z,7.33
2019-06-20T03:10:10.183Z,7.53
2019-06-20T03:12:44.697Z,7.83
2019-06-20T03:15:19.308Z,7.70
2019-06-20T03:17:53.846Z,7.80
2019-06-20T03:20:28.382Z,9.68
2019-06-20T03:23:03.003Z,7.40
2019-06-20T03:25:37.525Z,8.90
2019-06-20T03:28:12.008Z,7.50
2019-06-20T03:30:46.771Z,7.40
2019-06-20T03:33:21.314Z,7.08
2019-06-20T03:35:55.754Z,7.87
2019-06-20T03:38:30.173Z,7.78
2019-06-20T03:41:04.761Z,7.03
2019-06-20T03:43:39.189Z,7.75
2019-06-20T03:46:14.866Z,6.50
2019-06-20T03:48:49.436Z,8.00
2019-06-20T03:51:23.875Z,6.95
2019-06-20T03:53:58.293Z,7.55
2019-06-20T03:56:32.756Z,9.73
2019-06-20T03:59:07.236Z,7.10
2019-06-20T04:01:41.761Z,6.95
2019-06-20T04:04:17.853Z,7.12
2019-06-20T04:06:52.445Z,8.55
2019-06-20T04:09:26.945Z,7.42
2019-06-20T04:12:01.424Z,7.87
2019-06-20T04:14:35.840Z,8.03
2019-06-20T04:17:10.363Z,8.28
2019-06-20T04:19:44.794Z,7.33
2019-06-20T04:22:19.329Z,7.80
2019-06-20T04:24:53.838Z,8.93
2019-06-20T04:27:28.349Z,9.08
2019-06-20T04:30:02.913Z,7.33
2019-06-20T04:32:37.466Z,8.23
2019-06-20T04:35:12.027Z,8.45
2019-06-20T04:37:46.462Z,8.95
2019-06-20T04:40:21.204Z,8.63
2019-06-20T04:42:55.651Z,7.47
2019-06-20T04:45:35.484Z,7.85
2019-06-20T04:48:09.590Z,13.20
2019-06-20T04:50:44.140Z,8.58
2019-06-20T04:53:19.740Z,8.28
2019-06-20T04:55:54.337Z,7.25
2019-06-20T04:58:28.734Z,7.47
2019-06-20T05:01:03.294Z,6.85
2019-06-20T05:03:37.963Z,6.90
2019-06-20T05:06:12.367Z,9.90
2019-06-20T05:08:46.833Z,7.70
2019-06-20T05:12:22.390Z,6.90
2019-06-20T05:14:24.042Z,6.90
2019-06-20T05:16:58.462Z,10.68
2019-06-20T05:19:34.138Z,7.30
2019-06-20T05:22:08.611Z,8.23
2019-06-20T05:24:43.151Z,6.97
2019-06-20T05:27:18.132Z,7.67
2019-06-20T05:29:52.667Z,7.53
2019-06-20T05:32:27.268Z,7.10
2019-06-20T05:35:03.113Z,8.10
2019-06-20T05:37:37.872Z,9.25
2019-06-20T05:40:13.985Z,6.67
2019-06-20T05:42:48.460Z,6.83
2019-06-20T05:45:23.223Z,7.78
2019-06-20T05:47:57.868Z,7.50
2019-06-20T05:50:33.439Z,8.05
2019-06-20T05:53:07.922Z,6.65
2019-06-20T05:55:42.390Z,12.00
2019-06-20T05:58:16.825Z,9.55
2019-06-20T06:00:51.489Z,7.90
2019-06-20T06:03:25.901Z,7.85
2019-06-20T06:06:00.348Z,9.75
2019-06-20T06:08:34.834Z,7.50
2019-06-20T06:11:09.345Z,11.25
2019-06-20T06:13:43.851Z,9.50
2019-06-20T06:16:26.131Z,20.85
2019-06-20T06:18:55.080Z,11.10
2019-06-20T06:21:29.784Z,9.03
2019-06-20T06:24:04.504Z,10.10
2019-06-20T06:26:38.939Z,12.53
2019-06-20T06:29:13.450Z,13.58
2019-06-20T06:31:47.958Z,8.58
2019-06-20T06:34:25.171Z,12.90
2019-06-20T06:36:59.678Z,11.45
2019-06-20T06:39:35.210Z,9.88
2019-06-20T06:42:09.622Z,8.95
2019-06-20T06:44:45.788Z,10.65
2019-06-20T06:47:20.291Z,7.97
2019-06-20T06:49:54.773Z,10.55
2019-06-20T06:52:29.217Z,10.82
2019-06-20T06:55:04.201Z,11.88
2019-06-20T06:57:38.770Z,11.25
2019-06-20T07:00:15.365Z,10.58
2019-06-20T07:02:49.788Z,11.80
2019-06-20T07:05:24.383Z,12.28
2019-06-20T07:07:58.895Z,12.58
2019-06-20T07:10:33.578Z,12.37
2019-06-20T07:13:08.070Z,12.45
2019-06-20T07:15:42.685Z,15.83
2019-06-20T07:18:17.335Z,13.03
2019-06-20T07:20:51.787Z,13.53
2019-06-20T07:23:26.286Z,17.12
2019-06-20T07:26:03.979Z,17.67
2019-06-20T07:28:38.553Z,18.25
2019-06-20T07:31:13.012Z,21.62
2019-06-20T07:33:47.525Z,31.33
2019-06-20T07:36:22.053Z,34.88
2019-06-20T07:38:56.479Z,33.88
2019-06-20T07:41:31.103Z,32.60
2019-06-20T07:44:05.653Z,32.38
2019-06-20T07:46:40.127Z,33.90
2019-06-20T07:49:14.644Z,34.03
2019-06-20T07:51:56.823Z,32.83
2019-06-20T07:54:34.626Z,34.58
2019-06-20T07:57:10.793Z,33.85
2019-06-20T07:59:45.225Z,33.88
2019-06-20T08:02:19.753Z,36.15
2019-06-20T08:04:54.341Z,35.28
2019-06-20T08:07:28.855Z,35.92
2019-06-20T08:10:12.983Z,35.43
2019-06-20T08:12:47.499Z,36.98
2019-06-20T08:15:24.049Z,38.13
2019-06-20T08:17:58.530Z,36.55
2019-06-20T08:20:33.101Z,35.98
2019-06-20T08:23:08.731Z,34.38
2019-06-20T08:25:43.305Z,32.53
2019-06-20T08:28:17.774Z,33.65
2019-06-20T08:30:52.394Z,35.05
2019-06-20T08:33:26.929Z,33.73
2019-06-20T08:36:02.245Z,34.63
2019-06-20T08:38:37.284Z,33.15
2019-06-20T08:41:11.721Z,31.33
2019-06-20T08:43:46.185Z,31.27
2019-06-20T08:46:20.762Z,29.52
2019-06-20T08:48:56.599Z,28.83
2019-06-20T08:51:31.497Z,30.20
2019-06-20T08:54:06.184Z,26.05
2019-06-20T08:56:40.756Z,25.77
2019-06-20T08:59:24.352Z,29.82
2019-06-20T09:01:51.572Z,24.65
2019-06-20T09:04:26.023Z,23.90
2019-06-20T09:07:00.698Z,23.92
2019-06-20T09:09:35.687Z,23.65
2019-06-20T09:12:10.178Z,25.65
2019-06-20T09:14:44.657Z,24.45
2019-06-20T09:17:19.109Z,22.20
2019-06-20T09:19:54.408Z,23.80
2019-06-20T09:22:28.971Z,24.63
2019-06-20T09:25:04.786Z,22.48
2019-06-20T09:30:46.740Z,19.35
2019-06-20T09:33:21.316Z,17.20
2019-06-20T09:35:57.383Z,20.48
2019-06-20T09:38:32.928Z,19.30
2019-06-20T09:41:07.781Z,20.23
2019-06-20T09:43:43.387Z,20.85
2019-06-20T09:46:17.856Z,19.77
2019-06-20T09:48:53.920Z,21.17
2019-06-20T09:51:28.411Z,22.20
2019-06-20T09:54:02.931Z,17.45
2019-06-20T09:56:37.550Z,14.83
2019-06-20T09:59:26.907Z,14.18
2019-06-20T10:01:50.043Z,15.25
2019-06-20T10:04:24.398Z,15.15
2019-06-20T10:06:58.926Z,15.43
2019-06-20T10:09:33.449Z,13.78
2019-06-20T10:12:07.963Z,12.40
2019-06-20T10:14:42.489Z,12.30
2019-06-20T10:17:17.184Z,12.78
2019-06-20T10:19:52.084Z,13.62
2019-06-20T10:22:26.830Z,13.88
2019-06-20T10:25:01.338Z,11.78
2019-06-20T10:27:36.287Z,11.93
2019-06-20T10:30:14.614Z,14.00
2019-06-20T10:32:50.993Z,11.90
2019-06-20T10:35:25.776Z,12.50
2019-06-20T10:38:00.269Z,11.90
2019-06-20T10:40:34.788Z,12.70
2019-06-20T10:43:09.313Z,9.75
2019-06-20T10:45:44.667Z,9.25
2019-06-20T10:48:20.277Z,9.48
2019-06-20T10:50:56.425Z,10.43
2019-06-20T10:53:30.950Z,8.83
2019-06-20T10:56:05.499Z,9.08
2019-06-20T10:58:41.461Z,9.58
2019-06-20T11:01:16.318Z,11.73
2019-06-20T11:03:50.958Z,10.90
2019-06-20T11:06:25.449Z,13.70
2019-06-20T11:08:59.992Z,13.88
2019-06-20T11:11:34.490Z,15.72
2019-06-20T11:14:09.920Z,19.95
2019-06-20T11:16:45.230Z,17.90
2019-06-20T11:19:19.929Z,17.75
2019-06-20T11:21:54.354Z,19.45
2019-06-20T11:24:28.832Z,16.90
2019-06-20T11:27:03.401Z,18.10
2019-06-20T11:29:38.025Z,15.85
2019-06-20T11:32:12.536Z,14.10
2019-06-20T11:34:47.544Z,15.13
2019-06-20T11:37:22.466Z,14.87
2019-06-20T11:39:57.062Z,14.90
2019-06-20T11:42:31.562Z,16.10
2019-06-20T11:45:08.162Z,18.50
2019-06-20T11:47:43.727Z,17.12
2019-06-20T11:50:18.555Z,16.40
2019-06-20T11:52:53.008Z,16.48
2019-06-20T11:55:27.625Z,14.53
2019-06-20T11:58:02.134Z,13.28
2019-06-20T12:00:36.641Z,12.73
2019-06-20T12:03:11.159Z,14.33
2019-06-20T12:05:47.266Z,18.17
2019-06-20T12:08:21.862Z,13.75
2019-06-20T12:10:56.366Z,15.13
2019-06-20T12:13:30.769Z,14.60
2019-06-20T12:16:05.579Z,13.53
2019-06-20T12:18:41.487Z,13.90
2019-06-20T12:21:16.295Z,13.62
2019-06-20T12:23:50.821Z,14.93
2019-06-20T12:26:25.361Z,12.70
2019-06-20T12:28:59.875Z,12.58
2019-06-20T12:31:34.413Z,12.88
2019-06-20T12:34:08.864Z,11.93
2019-06-20T12:36:44.405Z,10.85
2019-06-20T12:39:19.566Z,12.47
2019-06-20T12:41:54.169Z,11.33
2019-06-20T12:44:28.605Z,10.90
2019-06-20T12:47:03.154Z,11.18
2019-06-20T12:49:39.059Z,11.10
2019-06-20T12:52:13.881Z,11.48
2019-06-20T12:54:49.175Z,12.13
2019-06-20T12:57:23.795Z,11.00
2019-06-20T12:59:58.818Z,9.88
2019-06-20T13:02:33.320Z,9.85
2019-06-20T13:05:08.752Z,10.28
2019-06-20T13:07:44.208Z,10.13
2019-06-20T13:10:19.081Z,9.80
2019-06-20T13:12:53.611Z,9.85
2019-06-20T13:15:29.582Z,9.43
2019-06-20T13:18:04.301Z,9.75
2019-06-20T13:20:40.532Z,11.33
2019-06-20T13:23:15.009Z,9.78
2019-06-20T13:25:49.549Z,10.95
2019-06-20T13:28:24.072Z,9.58
2019-06-20T13:30:58.501Z,8.95
2019-06-20T13:33:32.931Z,10.68
2019-06-20T13:36:07.581Z,10.05
2019-06-20T13:38:42.754Z,10.93
2019-06-20T13:41:17.497Z,10.58
2019-06-20T13:43:52.110Z,10.20
2019-06-20T13:46:26.576Z,9.50
2019-06-20T13:49:01.112Z,11.05
2019-06-20T13:51:35.684Z,14.35
2019-06-20T13:54:10.212Z,9.73
2019-06-20T13:56:45.342Z,8.65
2019-06-20T13:59:19.827Z,9.05
2019-06-20T14:02:06.248Z,8.95
2019-06-20T14:04:30.641Z,8.90
2019-06-20T14:07:05.195Z,9.15
2019-06-20T14:09:39.706Z,8.88
2019-06-20T14:12:15.747Z,9.20
2019-06-20T14:14:50.438Z,10.18
2019-06-20T14:17:25.011Z,9.98
2019-06-20T14:19:59.472Z,10.68
2019-06-20T14:22:34.095Z,9.50
2019-06-20T14:25:09.591Z,10.38
2019-06-20T14:27:45.883Z,8.53
2019-06-20T14:30:21.174Z,7.70
2019-06-20T14:32:56.995Z,8.75
2019-06-20T14:35:31.568Z,8.48
2019-06-20T14:38:06.162Z,8.65
2019-06-20T14:40:43.586Z,8.63
2019-06-20T14:43:17.067Z,7.80
2019-06-20T14:45:51.517Z,7.28
2019-06-20T14:48:26.005Z,7.10
2019-06-20T14:51:00.809Z,7.28
2019-06-20T14:53:35.300Z,7.62
2019-06-20T14:56:09.831Z,7.83
2019-06-20T14:58:44.948Z,7.55
2019-06-20T15:01:19.536Z,7.35
2019-06-20T15:03:54.042Z,6.70
2019-06-20T15:06:28.488Z,6.80
2019-06-20T15:09:06.068Z,7.47
2019-06-20T15:11:41.951Z,7.47
2019-06-20T15:14:16.468Z,6.58
2019-06-20T15:16:51.292Z,7.37
2019-06-20T15:19:25.999Z,6.97
2019-06-20T15:22:00.436Z,6.90
2019-06-20T15:24:34.943Z,6.95
2019-06-20T15:27:09.366Z,7.37
2019-06-20T15:29:43.812Z,7.78
2019-06-20T15:32:18.327Z,7.08
2019-06-20T15:34:53.249Z,8.43
2019-06-20T15:37:32.788Z,7.47
2019-06-20T15:40:08.010Z,7.15
2019-06-20T15:42:42.472Z,7.90
2019-06-20T15:45:17.272Z,7.92
2019-06-20T15:47:51.798Z,8.28
2019-06-20T15:50:26.319Z,7.22
2019-06-20T15:53:01.855Z,7.65
2019-06-20T15:55:36.429Z,8.55
2019-06-20T15:58:10.916Z,7.60
2019-06-20T16:00:45.567Z,7.42
2019-06-20T16:03:20.092Z,7.25
2019-06-20T16:05:54.676Z,8.08
2019-06-20T16:08:29.207Z,6.15
2019-06-20T16:11:03.707Z,6.47
2019-06-20T16:13:38.149Z,6.47
2019-06-20T16:16:12.681Z,7.47
2019-06-20T16:18:47.131Z,6.17
2019-06-20T16:21:21.551Z,6.33
2019-06-20T16:23:56.112Z,6.53
2019-06-20T16:26:30.771Z,6.80
2019-06-20T16:29:05.322Z,6.65
2019-06-20T16:31:39.941Z,7.53
2019-06-20T16:34:14.512Z,7.50
2019-06-20T16:36:49.238Z,7.40
2019-06-20T16:39:23.774Z,6.22
2019-06-20T16:41:58.347Z,6.28
2019-06-20T16:44:32.943Z,7.00
2019-06-20T16:47:07.585Z,7.75
2019-06-20T16:49:42.056Z,7.72
2019-06-20T16:52:16.497Z,8.48
2019-06-20T16:54:50.943Z,9.93
2019-06-20T16:57:25.488Z,10.60
2019-06-20T16:59:59.933Z,10.43
2019-06-20T17:02:34.530Z,9.38
2019-06-20T17:05:09.412Z,8.70
2019-06-20T17:07:43.832Z,9.53
2019-06-20T17:10:19.228Z,8.98
2019-06-20T17:12:53.819Z,8.40
2019-06-20T17:15:28.589Z,9.30
2019-06-20T17:18:03.098Z,9.58
2019-06-20T17:20:37.531Z,11.60
2019-06-20T17:23:12.040Z,12.63
2019-06-20T17:25:46.630Z,14.00
2019-06-20T17:28:21.209Z,15.48
2019-06-20T17:30:56.023Z,14.47
2019-06-20T17:33:30.558Z,14.60
2019-06-20T17:36:17.894Z,14.05
2019-06-20T17:38:41.333Z,15.45
2019-06-20T17:41:17.179Z,15.45
2019-06-20T17:43:52.285Z,17.80
2019-06-20T17:46:26.884Z,14.90
2019-06-20T17:49:02.459Z,17.15
2019-06-20T17:51:37.009Z,15.88
2019-06-20T17:54:11.505Z,14.75
2019-06-20T17:56:45.969Z,14.23
2019-06-20T17:59:22.847Z,14.05
2019-06-20T18:01:56.993Z,15.88
2019-06-20T18:04:31.422Z,16.00
2019-06-20T18:07:05.980Z,15.75
2019-06-20T18:09:40.765Z,16.23
2019-06-20T18:12:16.797Z,17.02
2019-06-20T18:14:52.065Z,19.23
2019-06-20T18:17:26.666Z,15.65
2019-06-20T18:20:01.241Z,15.55
2019-06-20T18:22:37.411Z,15.70
2019-06-20T18:25:12.372Z,17.20
2019-06-20T18:27:46.971Z,15.50
2019-06-20T18:30:24.447Z,16.75
2019-06-20T18:32:58.984Z,16.27
2019-06-20T18:35:33.749Z,16.80
2019-06-20T18:38:08.337Z,17.55
2019-06-20T18:40:42.828Z,14.28
2019-06-20T18:43:17.393Z,15.45
2019-06-20T18:45:51.807Z,18.48
2019-06-20T18:48:26.327Z,16.50
2019-06-20T18:51:01.949Z,18.05
2019-06-20T18:53:36.514Z,18.65
2019-06-20T18:56:11.143Z,17.32
2019-06-20T18:58:46.674Z,16.67
2019-06-20T19:01:21.184Z,17.73
2019-06-20T19:03:55.826Z,17.07
2019-06-20T19:06:35.845Z,14.75
2019-06-20T19:09:09.250Z,16.93
2019-06-20T19:11:44.039Z,16.50
2019-06-20T19:14:18.685Z,12.88
2019-06-20T19:16:53.136Z,14.07
2019-06-20T19:19:27.645Z,16.25
2019-06-20T19:22:02.082Z,14.40
2019-06-20T19:24:36.638Z,12.23
2019-06-20T19:27:11.163Z,15.05
2019-06-20T19:29:45.614Z,12.85
2019-06-20T19:32:20.047Z,12.40
2019-06-20T19:35:02.326Z,14.45
2019-06-20T19:37:30.766Z,13.30
2019-06-20T19:40:07.447Z,12.15
2019-06-20T19:42:42.023Z,13.22
2019-06-20T19:45:17.706Z,14.40
2019-06-20T19:47:52.209Z,16.82
2019-06-20T19:50:26.983Z,17.57
2019-06-20T19:53:01.574Z,16.95
2019-06-20T19:55:36.829Z,17.87
2019-06-20T19:58:11.420Z,18.62
2019-06-20T20:00:46.194Z,17.85
2019-06-20T20:03:20.772Z,18.42
2019-06-20T20:05:58.373Z,18.95
2019-06-20T20:08:32.566Z,18.50
2019-06-20T20:11:07.086Z,18.23
2019-06-20T20:13:41.598Z,18.55
2019-06-20T20:16:16.132Z,19.62
2019-06-20T20:18:51.595Z,18.45
2019-06-20T20:21:26.126Z,18.37
2019-06-20T20:24:00.564Z,19.25
2019-06-20T20:26:35.090Z,19.05
2019-06-20T20:29:09.518Z,18.73
2019-06-20T20:31:44.079Z,19.32
2019-06-20T20:34:18.501Z,17.60
2019-06-20T20:36:53.252Z,18.57
2019-06-20T20:39:27.732Z,18.67
2019-06-20T20:42:02.258Z,17.70
2019-06-20T20:44:36.684Z,16.75
2019-06-20T20:47:11.195Z,19.42
2019-06-20T20:49:45.627Z,19.95
2019-06-20T20:52:21.650Z,18.82
2019-06-20T20:54:56.097Z,17.77
2019-06-20T20:57:30.618Z,17.87
2019-06-20T21:00:26.135Z,19.35
2019-06-20T21:03:00.655Z,19.75
2019-06-20T21:05:50.440Z,17.60
2019-06-20T21:08:11.527Z,18.92
2019-06-20T21:10:46.626Z,17.02
2019-06-20T21:13:21.218Z,16.67
2019-06-20T21:15:55.605Z,17.20
2019-06-20T21:18:30.126Z,16.85
2019-06-20T21:21:04.819Z,16.20
2019-06-20T21:23:39.333Z,16.95
2019-06-20T21:26:13.858Z,18.20
2019-06-20T21:28:48.306Z,18.12
2019-06-20T21:31:22.895Z,12.65
2019-06-20T21:33:57.408Z,12.28
2019-06-20T21:36:31.976Z,5.70
2019-06-20T21:39:08.469Z,4.80
2019-06-20T21:41:42.905Z,7.42
2019-06-20T21:44:17.445Z,10.38
2019-06-20T21:46:51.938Z,7.45
2019-06-20T21:49:26.381Z,8.28
2019-06-20T21:52:00.811Z,19.57
2019-06-20T21:54:35.387Z,16.75
2019-06-20T21:57:09.874Z,13.65
2019-06-20T21:59:44.429Z,15.25
2019-06-20T22:02:19.255Z,15.15
2019-06-20T22:04:54.870Z,13.98
2019-06-20T22:07:30.764Z,14.85
2019-06-20T22:10:07.653Z,15.48
2019-06-20T22:12:42.348Z,19.17
2019-06-20T22:15:17.377Z,26.80
2019-06-20T22:17:51.954Z,28.02
2019-06-20T22:20:27.459Z,29.55
2019-06-20T22:23:01.871Z,33.13
2019-06-20T22:25:36.600Z,36.03
2019-06-20T22:28:11.351Z,38.50
2019-06-20T22:30:51.840Z,38.42
2019-06-20T22:33:26.276Z,39.53
2019-06-20T22:36:00.742Z,38.75
2019-06-20T22:38:35.316Z,36.70
2019-06-20T22:41:10.370Z,47.85
2019-06-20T22:43:44.860Z,43.20
2019-06-20T22:46:19.315Z,39.63
2019-06-20T22:48:54.339Z,45.73
2019-06-20T22:51:28.782Z,48.00
2019-06-20T22:54:03.442Z,44.95
2019-06-20T22:56:38.259Z,43.42
2019-06-20T22:59:12.837Z,42.40
2019-06-20T23:01:47.296Z,42.03
2019-06-20T23:04:21.875Z,46.63
2019-06-20T23:06:57.119Z,44.83
2019-06-20T23:09:31.653Z,53.52
2019-06-20T23:12:06.207Z,52.50
2019-06-20T23:14:40.692Z,45.85
2019-06-20T23:17:15.201Z,47.60
2019-06-20T23:19:49.621Z,54.27
2019-06-20T23:22:24.212Z,52.08
2019-06-20T23:24:58.639Z,53.75
2019-06-20T23:27:33.261Z,51.75
2019-06-20T23:30:09.107Z,46.80
2019-06-20T23:32:43.582Z,46.60
2019-06-20T23:35:18.087Z,47.23
2019-06-20T23:37:52.548Z,45.20
2019-06-20T23:40:27.060Z,48.58
2019-06-20T23:43:01.603Z,41.50
2019-06-20T23:45:36.038Z,41.08
2019-06-20T23:48:10.491Z,47.08
2019-06-20T23:50:44.905Z,41.35
2019-06-20T23:53:23.725Z,40.23
2019-06-20T23:55:58.279Z,39.10
2019-06-20T23:58:32.809Z,42.17
